Datos actuales meteorológicos del Aeropuerto de Valencia      LEVC Valencia
Temperatura
16°C Temperatura
3°C Punto de rocío
42% Humedad



Viento
26 KM/H
16 MPH
7 M/S
14 NUDO



270°
Oeste
Condiciones actuales

Claro Claro
Presión 1020.92 (hPa) - 30.15 (inHg)
Visibilidad 6.2 (milla) - 10 (km)
✈️ Manises
Código de aeropuerto LEVC

localidad: Valencia
Distancia de Meteo Lliria: 18 (km)

Metar:
LEVC 280130Z 27014KT CAVOK 16/03 Q1021 NOSIG

Hora: 28-02-2020 02:30 CET
Follow @meteolliria2013